createdAt,value
2022-09-16T00:02:12.598Z,89.15
2022-09-16T00:04:44.666Z,88.46
2022-09-16T00:07:12.572Z,88.16
2022-09-16T00:12:33.055Z,88.16
2022-09-16T00:15:31.676Z,88.18
2022-09-16T00:18:00.005Z,88.39
2022-09-16T00:20:28.982Z,88.01
2022-09-16T00:22:56.698Z,88.04
2022-09-16T00:25:24.654Z,87.97
2022-09-16T00:27:52.653Z,88.43
2022-09-16T00:30:21.188Z,88.46
2022-09-16T00:32:48.646Z,88.68
2022-09-16T00:35:16.597Z,88.16
2022-09-16T00:37:44.709Z,88.53
2022-09-16T00:40:12.857Z,88.77
2022-09-16T00:42:41.040Z,88.33
2022-09-16T00:45:22.946Z,88.71
2022-09-16T00:47:57.722Z,88.86
2022-09-16T00:53:26.958Z,89.32
2022-09-16T00:56:23.727Z,90.15
2022-09-16T00:58:53.522Z,90.01
2022-09-16T01:04:27.454Z,89.99
2022-09-16T01:06:54.813Z,90.00
2022-09-16T01:09:25.694Z,89.72
2022-09-16T01:11:52.641Z,89.74
2022-09-16T01:14:54.563Z,89.17
2022-09-16T01:17:50.038Z,88.75
2022-09-16T01:24:04.002Z,88.67
2022-09-16T01:26:59.881Z,88.16
2022-09-16T01:29:44.275Z,88.33
2022-09-16T01:32:20.402Z,88.47
2022-09-16T01:35:18.952Z,88.78
2022-09-16T01:38:24.237Z,88.49
2022-09-16T01:41:00.802Z,88.59
2022-09-16T01:43:57.944Z,88.14
2022-09-16T01:46:53.610Z,88.35
2022-09-16T01:49:29.257Z,88.31
2022-09-16T01:52:17.761Z,88.33
2022-09-16T01:55:13.586Z,87.83
2022-09-16T01:57:51.986Z,88.29
2022-09-16T02:00:24.610Z,88.35
2022-09-16T02:03:02.368Z,88.64
2022-09-16T02:08:56.022Z,87.87
2022-09-16T02:11:51.115Z,87.99
2022-09-16T02:14:28.105Z,87.98
2022-09-16T02:17:05.896Z,88.32
2022-09-16T02:20:08.056Z,87.98
2022-09-16T02:22:44.162Z,88.58
2022-09-16T02:25:44.727Z,88.13
2022-09-16T02:28:19.125Z,88.19
2022-09-16T02:30:52.770Z,88.18
2022-09-16T02:33:22.344Z,88.14
2022-09-16T02:36:23.445Z,88.49
2022-09-16T02:38:55.996Z,88.61
2022-09-16T02:41:28.675Z,89.52
2022-09-16T02:44:01.716Z,88.47
2022-09-16T02:46:46.510Z,89.06
2022-09-16T02:49:44.350Z,89.51
2022-09-16T02:52:31.613Z,88.94
2022-09-16T02:55:10.313Z,89.34
2022-09-16T02:57:38.562Z,89.32
2022-09-16T03:00:07.334Z,89.18
2022-09-16T03:02:35.596Z,89.03
2022-09-16T03:05:03.724Z,89.38
2022-09-16T03:07:30.957Z,89.33
2022-09-16T03:10:04.214Z,90.03
2022-09-16T03:13:08.124Z,89.56
2022-09-16T03:19:21.459Z,90.05
2022-09-16T03:22:02.464Z,89.75
2022-09-16T03:25:08.028Z,89.27
2022-09-16T03:27:51.206Z,89.04
2022-09-16T03:34:11.772Z,88.15
2022-09-16T03:36:51.674Z,88.34
2022-09-16T03:39:19.277Z,88.33
2022-09-16T03:45:04.926Z,88.80
2022-09-16T03:47:33.104Z,88.58
2022-09-16T03:50:00.861Z,88.33
2022-09-16T03:52:28.745Z,88.43
2022-09-16T03:54:56.751Z,88.58
2022-09-16T03:57:29.780Z,88.05
2022-09-16T03:59:56.757Z,88.67
2022-09-16T04:02:53.661Z,89.32
2022-09-16T04:05:20.678Z,89.05
2022-09-16T04:07:52.531Z,89.52
2022-09-16T04:10:20.682Z,89.83
2022-09-16T04:13:17.568Z,90.36
2022-09-16T04:16:09.363Z,90.83
2022-09-16T04:18:36.624Z,91.18
2022-09-16T04:21:04.941Z,91.06
2022-09-16T04:23:32.538Z,90.33
2022-09-16T04:26:04.448Z,89.94
2022-09-16T04:28:33.597Z,90.39
2022-09-16T04:31:05.553Z,89.82
2022-09-16T04:33:34.233Z,90.04
2022-09-16T04:36:25.001Z,89.97
2022-09-16T04:38:52.792Z,89.46
2022-09-16T04:41:23.090Z,89.32
2022-09-16T04:43:52.801Z,89.33
2022-09-16T04:46:20.848Z,89.69
2022-09-16T04:48:50.223Z,90.06
2022-09-16T04:51:42.614Z,89.69
2022-09-16T04:54:17.099Z,89.28
2022-09-16T04:56:44.563Z,89.18
2022-09-16T04:59:12.512Z,88.93
2022-09-16T05:01:40.783Z,89.84
2022-09-16T05:04:10.347Z,89.68
2022-09-16T05:09:40.471Z,89.56
2022-09-16T05:12:08.871Z,89.37
2022-09-16T05:15:00.544Z,90.34
2022-09-16T05:17:50.427Z,90.37
2022-09-16T05:20:24.576Z,90.28
2022-09-16T05:22:52.590Z,90.38
2022-09-16T05:25:20.707Z,90.26
2022-09-16T05:27:48.651Z,90.48
2022-09-16T05:30:42.086Z,90.15
2022-09-16T05:39:04.727Z,89.08
2022-09-16T05:41:36.136Z,88.87
2022-09-16T05:44:06.644Z,89.71
2022-09-16T05:49:26.886Z,90.18
2022-09-16T05:51:55.528Z,90.07
2022-09-16T05:57:12.228Z,90.70
2022-09-16T06:02:44.025Z,90.52
2022-09-16T06:05:13.005Z,90.26
2022-09-16T06:22:30.971Z,89.91
2022-09-16T06:33:20.442Z,90.01
2022-09-16T06:35:51.085Z,90.78
2022-09-16T06:38:25.209Z,90.59
2022-09-16T06:40:52.559Z,90.24
2022-09-16T06:43:20.573Z,90.58
2022-09-16T06:45:57.582Z,90.17
2022-09-16T06:48:24.768Z,90.06
2022-09-16T06:51:02.374Z,90.18
2022-09-16T06:53:34.541Z,90.16
2022-09-16T06:56:08.022Z,90.40
2022-09-16T06:58:37.781Z,90.16
2022-09-16T07:01:09.685Z,90.21
2022-09-16T07:03:47.123Z,89.78
2022-09-16T07:06:15.951Z,89.64
2022-09-16T07:08:48.697Z,89.40
2022-09-16T07:11:18.842Z,89.30
2022-09-16T07:13:53.232Z,89.60
2022-09-16T07:16:27.014Z,89.86
2022-09-16T07:19:00.713Z,89.02
2022-09-16T07:21:30.428Z,89.03
2022-09-16T07:24:05.591Z,89.72
2022-09-16T07:26:35.040Z,89.05
2022-09-16T07:29:04.647Z,87.75
2022-09-16T07:31:35.700Z,88.97
2022-09-16T07:34:05.006Z,88.65
2022-09-16T07:36:44.922Z,88.18
2022-09-16T07:39:19.475Z,88.27
2022-09-16T07:41:48.534Z,88.36
2022-09-16T07:44:19.010Z,87.29
2022-09-16T07:46:47.078Z,88.06
2022-09-16T07:49:15.157Z,87.28
2022-09-16T07:51:43.377Z,86.41
2022-09-16T07:54:13.688Z,87.59
2022-09-16T07:56:41.847Z,86.67
2022-09-16T07:59:39.849Z,85.83
2022-09-16T08:02:17.835Z,87.16
2022-09-16T08:04:44.730Z,86.82
2022-09-16T08:07:12.680Z,87.31
2022-09-16T08:09:50.992Z,86.61
2022-09-16T08:12:20.662Z,85.97
2022-09-16T08:14:48.517Z,85.68
2022-09-16T08:20:09.059Z,83.25
2022-09-16T08:22:36.627Z,85.08
2022-09-16T08:25:13.692Z,83.34
2022-09-16T08:27:40.563Z,83.93
2022-09-16T08:30:09.771Z,84.34
2022-09-16T08:32:36.748Z,81.00
2022-09-16T08:35:09.937Z,82.00
2022-09-16T08:37:36.768Z,79.67
2022-09-16T08:40:15.400Z,82.51
2022-09-16T08:42:45.859Z,80.57
2022-09-16T08:45:43.549Z,81.96
2022-09-16T08:48:40.401Z,81.62
2022-09-16T08:51:15.204Z,80.58
2022-09-16T08:53:55.037Z,81.39
2022-09-16T08:56:25.805Z,80.05
2022-09-16T08:58:55.571Z,81.72
2022-09-16T09:01:42.794Z,80.56
2022-09-16T09:04:12.406Z,81.71
2022-09-16T09:06:43.696Z,82.65
2022-09-16T09:10:01.017Z,80.33
2022-09-16T09:12:39.616Z,82.15
2022-09-16T09:15:39.326Z,82.16
2022-09-16T09:24:36.991Z,80.43
2022-09-16T09:27:46.961Z,80.85
2022-09-16T09:30:22.345Z,81.61
2022-09-16T09:33:28.034Z,77.69
2022-09-16T09:36:32.874Z,77.77
2022-09-16T09:39:06.605Z,78.43
2022-09-16T09:41:41.903Z,78.41
2022-09-16T09:44:39.978Z,78.24
2022-09-16T09:47:30.106Z,77.68
2022-09-16T09:50:17.057Z,78.00
2022-09-16T09:52:52.561Z,77.45
2022-09-16T09:55:27.795Z,77.30
2022-09-16T09:58:15.773Z,76.78
2022-09-16T10:00:42.761Z,78.08
2022-09-16T10:03:13.795Z,77.36
2022-09-16T10:05:44.687Z,77.42
2022-09-16T10:08:20.876Z,73.14
2022-09-16T10:11:24.197Z,75.43
2022-09-16T10:16:52.983Z,72.25
2022-09-16T10:19:26.233Z,72.03
2022-09-16T10:22:08.051Z,71.66
2022-09-16T10:24:39.243Z,72.88
2022-09-16T10:30:17.925Z,74.74
2022-09-16T10:33:01.534Z,74.94
2022-09-16T10:36:00.858Z,73.20
2022-09-16T10:39:05.215Z,71.35
2022-09-16T10:44:34.963Z,73.57
2022-09-16T10:47:10.348Z,71.33
2022-09-16T10:49:44.811Z,71.63
2022-09-16T10:52:23.276Z,70.19
2022-09-16T10:54:51.147Z,69.73
2022-09-16T10:57:26.339Z,67.78
2022-09-16T11:00:09.083Z,70.02
2022-09-16T11:02:52.679Z,68.85
2022-09-16T11:05:33.689Z,67.40
2022-09-16T11:08:16.440Z,68.88
2022-09-16T11:10:48.733Z,65.14
2022-09-16T11:13:42.657Z,67.01
2022-09-16T11:16:21.156Z,67.52
2022-09-16T11:22:17.897Z,66.76
2022-09-16T11:25:29.236Z,66.45
2022-09-16T11:28:27.757Z,69.93
2022-09-16T11:31:24.509Z,71.90
2022-09-16T11:34:23.736Z,74.35
2022-09-16T11:37:06.959Z,75.74
2022-09-16T11:39:57.407Z,75.16
2022-09-16T11:42:35.109Z,75.51
2022-09-16T11:45:20.688Z,75.27
2022-09-16T11:48:30.380Z,76.28
2022-09-16T11:51:24.048Z,76.43
2022-09-16T11:54:02.342Z,76.13
2022-09-16T12:00:05.672Z,75.22
2022-09-16T12:02:59.837Z,76.01
2022-09-16T12:05:53.608Z,75.19
2022-09-16T12:08:39.008Z,76.25
2022-09-16T12:11:19.717Z,75.72
2022-09-16T12:14:42.929Z,73.32
2022-09-16T12:20:34.975Z,73.31
2022-09-16T12:23:24.261Z,74.28
2022-09-16T12:26:01.207Z,72.42
2022-09-16T12:29:05.817Z,74.28
2022-09-16T12:31:53.126Z,77.28
2022-09-16T12:34:28.299Z,79.93
2022-09-16T12:37:12.337Z,79.72
2022-09-16T12:39:41.018Z,81.80
2022-09-16T12:42:26.955Z,80.47
2022-09-16T12:45:13.353Z,79.66
2022-09-16T12:47:41.090Z,80.36
2022-09-16T12:50:52.513Z,81.77
2022-09-16T12:53:58.124Z,81.37
2022-09-16T12:57:15.820Z,81.17
2022-09-16T13:00:22.196Z,81.21
2022-09-16T13:02:58.910Z,81.17
2022-09-16T13:05:59.872Z,82.22
2022-09-16T13:08:30.204Z,83.20
2022-09-16T13:12:00.567Z,82.71
2022-09-16T13:14:02.391Z,83.97
2022-09-16T13:16:36.727Z,83.44
2022-09-16T13:22:28.167Z,80.75
2022-09-16T13:25:20.910Z,80.94
2022-09-16T13:28:22.176Z,82.12
2022-09-16T13:30:54.671Z,79.99
2022-09-16T13:33:28.145Z,81.42
2022-09-16T13:36:18.828Z,80.70
2022-09-16T13:41:47.362Z,80.64
2022-09-16T13:44:37.421Z,80.52
2022-09-16T13:47:15.561Z,81.26
2022-09-16T13:50:14.408Z,81.57
2022-09-16T13:52:43.849Z,82.94
2022-09-16T13:55:26.379Z,83.86
2022-09-16T13:58:54.943Z,82.61
2022-09-16T14:01:56.027Z,82.94
2022-09-16T14:05:10.156Z,84.41
2022-09-16T14:07:51.299Z,84.79
2022-09-16T14:10:30.772Z,85.47
2022-09-16T14:13:21.577Z,85.56
2022-09-16T14:15:56.623Z,85.54
2022-09-16T14:18:28.973Z,85.94
2022-09-16T14:21:16.424Z,85.75
2022-09-16T14:23:44.564Z,86.97
2022-09-16T14:26:14.872Z,87.05
2022-09-16T14:28:42.533Z,86.93
2022-09-16T14:31:29.105Z,86.33
2022-09-16T14:34:08.441Z,87.35
2022-09-16T14:36:45.618Z,87.08
2022-09-16T14:39:17.509Z,86.91
2022-09-16T14:42:15.774Z,86.91
2022-09-16T14:44:51.132Z,87.17
2022-09-16T14:50:24.534Z,87.91
2022-09-16T14:52:55.662Z,87.87
2022-09-16T14:55:36.827Z,87.60
2022-09-16T14:58:04.626Z,88.24
2022-09-16T15:00:44.287Z,87.71
2022-09-16T15:03:29.764Z,88.25
2022-09-16T15:06:06.847Z,88.99
2022-09-16T15:08:54.741Z,89.43
2022-09-16T15:11:47.214Z,88.81
2022-09-16T15:14:15.484Z,89.45
2022-09-16T15:16:47.238Z,89.72
2022-09-16T15:19:25.314Z,90.04
2022-09-16T15:24:47.511Z,90.12
2022-09-16T15:27:24.966Z,89.57
2022-09-16T15:29:57.428Z,89.19
2022-09-16T15:32:28.179Z,88.43
2022-09-16T15:35:32.170Z,89.28
2022-09-16T15:38:14.655Z,89.91
2022-09-16T15:40:47.663Z,90.39
2022-09-16T15:43:24.715Z,90.28
2022-09-16T15:46:04.802Z,90.31
2022-09-16T15:48:35.985Z,90.60
2022-09-16T15:51:39.562Z,90.89
2022-09-16T15:54:18.629Z,90.76
2022-09-16T15:57:07.025Z,91.18
2022-09-16T16:00:13.887Z,91.23
2022-09-16T16:02:53.602Z,90.66
2022-09-16T16:08:37.227Z,90.69
2022-09-16T16:11:30.960Z,90.50
2022-09-16T16:14:01.911Z,90.24
2022-09-16T16:16:32.188Z,90.34
2022-09-16T16:19:00.951Z,90.63
2022-09-16T16:21:28.651Z,90.77
2022-09-16T16:23:56.616Z,90.69
2022-09-16T16:26:24.771Z,91.15
2022-09-16T16:28:52.598Z,90.58
2022-09-16T16:34:17.560Z,91.06
2022-09-16T16:36:44.607Z,91.34
2022-09-16T16:39:12.536Z,91.36
2022-09-16T16:41:47.552Z,90.88
2022-09-16T16:47:07.737Z,90.99
2022-09-16T16:49:35.119Z,90.95
2022-09-16T16:52:05.012Z,90.82
2022-09-16T16:54:38.434Z,91.23
2022-09-16T16:57:07.665Z,90.92
2022-09-16T16:59:34.580Z,90.93
2022-09-16T17:04:56.518Z,91.02
2022-09-16T17:10:23.439Z,91.40
2022-09-16T17:13:16.069Z,91.53
2022-09-16T17:15:44.627Z,91.42
2022-09-16T17:18:12.746Z,91.95
2022-09-16T17:20:40.786Z,92.19
2022-09-16T17:23:16.718Z,91.63
2022-09-16T17:28:45.164Z,91.87
2022-09-16T17:31:24.498Z,91.66
2022-09-16T17:36:53.665Z,90.66
2022-09-16T17:39:21.792Z,90.64
2022-09-16T17:41:49.802Z,90.25
2022-09-16T17:47:10.551Z,90.62
2022-09-16T17:49:43.640Z,90.82
2022-09-16T17:52:10.730Z,90.38
2022-09-16T17:54:38.673Z,90.83
2022-09-16T17:57:06.770Z,90.57
2022-09-16T17:59:34.524Z,90.52
2022-09-16T18:02:02.952Z,90.32
2022-09-16T18:07:23.120Z,91.33
2022-09-16T18:09:50.549Z,90.99
2022-09-16T18:12:18.502Z,90.99
2022-09-16T18:14:46.553Z,90.71
2022-09-16T18:17:15.909Z,91.03
2022-09-16T18:19:42.509Z,90.77
2022-09-16T18:22:34.621Z,90.48
2022-09-16T18:25:06.808Z,90.62
2022-09-16T18:27:34.648Z,90.26
2022-09-16T18:30:03.032Z,90.33
2022-09-16T18:32:30.685Z,89.85
2022-09-16T18:34:59.478Z,90.19
2022-09-16T18:37:28.428Z,90.47
2022-09-16T18:40:01.699Z,90.62
2022-09-16T18:42:32.006Z,91.10
2022-09-16T18:45:00.646Z,91.04
2022-09-16T18:47:28.525Z,90.62
2022-09-16T18:50:00.565Z,90.43
2022-09-16T18:52:33.610Z,90.83
2022-09-16T18:57:52.659Z,91.10
2022-09-16T19:03:13.142Z,91.04
2022-09-16T19:05:54.959Z,91.13
2022-09-16T19:11:16.306Z,90.96
2022-09-16T19:13:45.226Z,90.73
2022-09-16T19:16:13.281Z,90.59
2022-09-16T19:18:42.198Z,90.58
2022-09-16T19:21:16.603Z,90.09
2022-09-16T19:24:19.558Z,89.91
2022-09-16T19:26:48.632Z,89.74
2022-09-16T19:29:17.983Z,90.11
2022-09-16T19:31:52.923Z,90.29
2022-09-16T19:34:21.599Z,90.13
2022-09-16T19:36:49.528Z,89.73
2022-09-16T19:39:16.682Z,90.15
2022-09-16T19:41:45.168Z,89.56
2022-09-16T19:44:38.636Z,89.99
2022-09-16T19:47:06.571Z,89.48
2022-09-16T19:52:31.518Z,89.79
2022-09-16T19:55:05.607Z,89.47
2022-09-16T19:57:32.621Z,89.65
2022-09-16T20:00:32.779Z,89.94
2022-09-16T20:03:39.230Z,89.94
2022-09-16T20:06:15.628Z,89.22
2022-09-16T20:08:49.500Z,89.47
2022-09-16T20:11:19.520Z,89.88
2022-09-16T20:16:52.382Z,89.29
2022-09-16T20:19:20.558Z,89.57
2022-09-16T20:21:57.595Z,89.53
2022-09-16T20:24:25.457Z,89.51
2022-09-16T20:26:54.418Z,89.52
2022-09-16T20:29:22.782Z,89.09
2022-09-16T20:31:52.763Z,89.04
2022-09-16T20:34:22.938Z,88.91
2022-09-16T20:36:51.465Z,88.80
2022-09-16T20:39:23.634Z,89.57
2022-09-16T20:41:52.535Z,89.37
2022-09-16T20:44:20.741Z,89.17
2022-09-16T20:46:50.017Z,89.11
2022-09-16T20:49:19.970Z,88.75
2022-09-16T20:54:38.557Z,89.41
2022-09-16T20:57:06.503Z,88.74
2022-09-16T20:59:39.382Z,88.93
2022-09-16T21:02:09.461Z,88.86
2022-09-16T21:04:42.546Z,89.20
2022-09-16T21:07:12.189Z,88.76
2022-09-16T21:09:40.745Z,88.64
2022-09-16T21:12:08.956Z,89.05
2022-09-16T21:14:41.540Z,88.89
2022-09-16T21:17:13.545Z,88.87
2022-09-16T21:19:40.745Z,88.64
2022-09-16T21:22:13.629Z,88.56
2022-09-16T21:43:01.205Z,88.88
2022-09-16T21:45:28.780Z,89.23
2022-09-16T21:48:02.651Z,88.81
2022-09-16T21:50:30.906Z,88.87
2022-09-16T22:10:39.101Z,89.59
2022-09-16T22:13:07.339Z,89.61
2022-09-16T22:15:39.782Z,89.40
2022-09-16T22:18:06.588Z,89.22
2022-09-16T22:20:36.566Z,89.30
2022-09-16T22:23:28.656Z,89.87
2022-09-16T22:25:56.614Z,89.38
2022-09-16T22:28:24.527Z,89.52
2022-09-16T22:30:52.508Z,89.63
2022-09-16T22:33:20.682Z,89.15
2022-09-16T22:35:49.403Z,89.65
2022-09-16T22:38:16.714Z,89.74
2022-09-16T22:40:44.546Z,89.91
2022-09-16T22:43:12.637Z,89.23
2022-09-16T22:45:40.548Z,89.15
2022-09-16T22:48:08.543Z,89.14
2022-09-16T22:50:36.486Z,89.59
2022-09-16T22:53:29.832Z,89.15
2022-09-16T22:56:07.646Z,89.80
2022-09-16T22:58:39.568Z,89.72
2022-09-16T23:04:18.721Z,90.05
2022-09-16T23:06:48.150Z,90.70
2022-09-16T23:09:17.312Z,90.65
2022-09-16T23:11:45.691Z,90.24
2022-09-16T23:16:57.161Z,89.93
2022-09-16T23:19:24.635Z,90.94
2022-09-16T23:22:19.330Z,91.06
2022-09-16T23:24:46.531Z,90.80
2022-09-16T23:27:40.833Z,90.49
2022-09-16T23:30:20.089Z,90.23
2022-09-16T23:32:49.368Z,90.25
2022-09-16T23:35:23.162Z,90.43
2022-09-16T23:37:50.796Z,90.70
2022-09-16T23:40:18.641Z,90.42
2022-09-16T23:42:46.692Z,90.64
2022-09-16T23:45:20.304Z,90.26
